sensor_id;sensor_type;location;lat;lon;timestamp;P1;durP1;ratioP1;P2;durP2;ratioP2
26157;SDS011;67284;44.782;10.282;2023-02-22T00:03:37;48.58;;;28.63;;
26157;SDS011;67284;44.782;10.282;2023-02-22T00:08:30;56.15;;;30.75;;
26157;SDS011;67284;44.782;10.282;2023-02-22T00:13:24;44.28;;;27.98;;
26157;SDS011;67284;44.782;10.282;2023-02-22T00:18:19;47.92;;;27.52;;
26157;SDS011;67284;44.782;10.282;2023-02-22T00:23:18;52.60;;;32.50;;
26157;SDS011;67284;44.782;10.282;2023-02-22T00:28:12;57.00;;;32.63;;
26157;SDS011;67284;44.782;10.282;2023-02-22T00:33:05;48.95;;;30.75;;
26157;SDS011;67284;44.782;10.282;2023-02-22T00:37:58;46.58;;;29.30;;
26157;SDS011;67284;44.782;10.282;2023-02-22T00:42:51;45.85;;;28.27;;
26157;SDS011;67284;44.782;10.282;2023-02-22T00:47:43;55.10;;;31.33;;
26157;SDS011;67284;44.782;10.282;2023-02-22T00:52:38;51.00;;;32.47;;
26157;SDS011;67284;44.782;10.282;2023-02-22T00:57:30;47.47;;;29.33;;
26157;SDS011;67284;44.782;10.282;2023-02-22T01:02:22;55.90;;;32.90;;
26157;SDS011;67284;44.782;10.282;2023-02-22T01:07:14;65.47;;;36.72;;
26157;SDS011;67284;44.782;10.282;2023-02-22T01:12:06;58.47;;;34.30;;
26157;SDS011;67284;44.782;10.282;2023-02-22T01:16:58;73.18;;;40.08;;
26157;SDS011;67284;44.782;10.282;2023-02-22T01:21:50;81.43;;;44.10;;
26157;SDS011;67284;44.782;10.282;2023-02-22T01:26:42;78.85;;;44.17;;
26157;SDS011;67284;44.782;10.282;2023-02-22T01:31:37;90.03;;;48.97;;
26157;SDS011;67284;44.782;10.282;2023-02-22T01:36:29;92.45;;;50.80;;
26157;SDS011;67284;44.782;10.282;2023-02-22T01:41:21;94.50;;;52.45;;
26157;SDS011;67284;44.782;10.282;2023-02-22T01:46:23;81.93;;;46.47;;
26157;SDS011;67284;44.782;10.282;2023-02-22T01:51:18;95.32;;;54.47;;
26157;SDS011;67284;44.782;10.282;2023-02-22T01:56:14;105.68;;;56.40;;
26157;SDS011;67284;44.782;10.282;2023-02-22T02:01:07;102.65;;;58.15;;
26157;SDS011;67284;44.782;10.282;2023-02-22T02:06:00;96.72;;;55.85;;
26157;SDS011;67284;44.782;10.282;2023-02-22T02:10:56;102.28;;;55.28;;
26157;SDS011;67284;44.782;10.282;2023-02-22T02:15:50;110.32;;;56.05;;
26157;SDS011;67284;44.782;10.282;2023-02-22T02:36:18;108.47;;;58.22;;
26157;SDS011;67284;44.782;10.282;2023-02-22T02:46:20;122.07;;;63.50;;
26157;SDS011;67284;44.782;10.282;2023-02-22T02:51:17;128.32;;;66.22;;
26157;SDS011;67284;44.782;10.282;2023-02-22T02:56:11;111.07;;;58.03;;
26157;SDS011;67284;44.782;10.282;2023-02-22T03:01:03;143.98;;;72.32;;
26157;SDS011;67284;44.782;10.282;2023-02-22T03:21:33;129.45;;;67.40;;
26157;SDS011;67284;44.782;10.282;2023-02-22T03:26:33;161.77;;;78.22;;
26157;SDS011;67284;44.782;10.282;2023-02-22T03:31:35;159.93;;;77.30;;
26157;SDS011;67284;44.782;10.282;2023-02-22T03:36:32;154.50;;;78.82;;
26157;SDS011;67284;44.782;10.282;2023-02-22T03:41:29;158.27;;;80.40;;
26157;SDS011;67284;44.782;10.282;2023-02-22T03:46:23;179.27;;;90.45;;
26157;SDS011;67284;44.782;10.282;2023-02-22T03:51:20;185.18;;;91.03;;
26157;SDS011;67284;44.782;10.282;2023-02-22T03:56:22;171.32;;;84.03;;
26157;SDS011;67284;44.782;10.282;2023-02-22T04:01:18;162.43;;;80.95;;
26157;SDS011;67284;44.782;10.282;2023-02-22T04:06:14;176.82;;;86.10;;
26157;SDS011;67284;44.782;10.282;2023-02-22T04:11:07;174.68;;;86.63;;
26157;SDS011;67284;44.782;10.282;2023-02-22T04:15:59;166.18;;;83.10;;
26157;SDS011;67284;44.782;10.282;2023-02-22T04:20:51;174.18;;;85.47;;
26157;SDS011;67284;44.782;10.282;2023-02-22T04:25:53;167.27;;;86.30;;
26157;SDS011;67284;44.782;10.282;2023-02-22T04:30:45;164.93;;;81.28;;
26157;SDS011;67284;44.782;10.282;2023-02-22T04:35:40;159.60;;;83.60;;
26157;SDS011;67284;44.782;10.282;2023-02-22T04:40:32;181.45;;;86.82;;
26157;SDS011;67284;44.782;10.282;2023-02-22T04:45:24;161.23;;;80.68;;
26157;SDS011;67284;44.782;10.282;2023-02-22T04:50:16;156.82;;;79.00;;
26157;SDS011;67284;44.782;10.282;2023-02-22T04:55:09;163.25;;;82.75;;
26157;SDS011;67284;44.782;10.282;2023-02-22T05:00:02;170.25;;;84.25;;
26157;SDS011;67284;44.782;10.282;2023-02-22T05:04:56;161.85;;;79.65;;
26157;SDS011;67284;44.782;10.282;2023-02-22T05:09:48;166.75;;;82.93;;
26157;SDS011;67284;44.782;10.282;2023-02-22T05:14:40;160.68;;;80.80;;
26157;SDS011;67284;44.782;10.282;2023-02-22T05:19:32;167.18;;;80.68;;
26157;SDS011;67284;44.782;10.282;2023-02-22T05:24:24;160.82;;;81.22;;
26157;SDS011;67284;44.782;10.282;2023-02-22T05:29:16;167.02;;;82.43;;
26157;SDS011;67284;44.782;10.282;2023-02-22T05:34:07;161.85;;;79.60;;
26157;SDS011;67284;44.782;10.282;2023-02-22T05:38:59;168.05;;;80.72;;
26157;SDS011;67284;44.782;10.282;2023-02-22T05:43:51;159.90;;;80.70;;
26157;SDS011;67284;44.782;10.282;2023-02-22T05:48:43;159.55;;;81.18;;
26157;SDS011;67284;44.782;10.282;2023-02-22T05:53:35;171.88;;;80.45;;
26157;SDS011;67284;44.782;10.282;2023-02-22T05:58:27;159.95;;;79.88;;
26157;SDS011;67284;44.782;10.282;2023-02-22T06:03:19;153.82;;;77.63;;
26157;SDS011;67284;44.782;10.282;2023-02-22T06:08:11;151.10;;;77.72;;
26157;SDS011;67284;44.782;10.282;2023-02-22T06:13:03;152.70;;;76.80;;
26157;SDS011;67284;44.782;10.282;2023-02-22T06:17:56;153.80;;;74.22;;
26157;SDS011;67284;44.782;10.282;2023-02-22T06:22:49;150.68;;;80.10;;
26157;SDS011;67284;44.782;10.282;2023-02-22T06:27:42;142.27;;;74.90;;
26157;SDS011;67284;44.782;10.282;2023-02-22T06:32:34;145.65;;;73.38;;
26157;SDS011;67284;44.782;10.282;2023-02-22T06:37:26;142.07;;;75.18;;
26157;SDS011;67284;44.782;10.282;2023-02-22T06:42:17;132.57;;;70.15;;
26157;SDS011;67284;44.782;10.282;2023-02-22T06:47:09;143.05;;;74.20;;
26157;SDS011;67284;44.782;10.282;2023-02-22T06:52:03;138.38;;;71.22;;
26157;SDS011;67284;44.782;10.282;2023-02-22T06:56:58;133.80;;;70.45;;
26157;SDS011;67284;44.782;10.282;2023-02-22T07:01:50;142.85;;;74.65;;
26157;SDS011;67284;44.782;10.282;2023-02-22T07:06:45;140.52;;;70.18;;
26157;SDS011;67284;44.782;10.282;2023-02-22T07:11:39;142.18;;;71.32;;
26157;SDS011;67284;44.782;10.282;2023-02-22T07:16:31;142.93;;;72.13;;
26157;SDS011;67284;44.782;10.282;2023-02-22T07:21:24;145.10;;;72.95;;
26157;SDS011;67284;44.782;10.282;2023-02-22T07:26:25;134.30;;;71.75;;
26157;SDS011;67284;44.782;10.282;2023-02-22T07:31:17;153.05;;;75.43;;
26157;SDS011;67284;44.782;10.282;2023-02-22T07:36:09;151.05;;;75.78;;
26157;SDS011;67284;44.782;10.282;2023-02-22T07:41:01;148.57;;;77.43;;
26157;SDS011;67284;44.782;10.282;2023-02-22T07:45:56;149.10;;;77.00;;
26157;SDS011;67284;44.782;10.282;2023-02-22T07:50:49;146.93;;;75.72;;
26157;SDS011;67284;44.782;10.282;2023-02-22T07:55:41;154.20;;;75.97;;
26157;SDS011;67284;44.782;10.282;2023-02-22T08:00:38;160.73;;;78.90;;
26157;SDS011;67284;44.782;10.282;2023-02-22T08:05:30;143.13;;;74.18;;
26157;SDS011;67284;44.782;10.282;2023-02-22T08:10:24;150.70;;;74.72;;
26157;SDS011;67284;44.782;10.282;2023-02-22T08:15:22;143.15;;;74.13;;
26157;SDS011;67284;44.782;10.282;2023-02-22T08:20:19;134.13;;;73.82;;
26157;SDS011;67284;44.782;10.282;2023-02-22T08:25:12;147.35;;;73.43;;
26157;SDS011;67284;44.782;10.282;2023-02-22T08:30:06;131.20;;;70.50;;
26157;SDS011;67284;44.782;10.282;2023-02-22T08:34:59;145.73;;;72.15;;
26157;SDS011;67284;44.782;10.282;2023-02-22T08:39:52;144.57;;;72.88;;
26157;SDS011;67284;44.782;10.282;2023-02-22T08:44:44;148.18;;;74.68;;
26157;SDS011;67284;44.782;10.282;2023-02-22T08:49:36;134.20;;;72.05;;
26157;SDS011;67284;44.782;10.282;2023-02-22T08:54:27;136.70;;;70.82;;
26157;SDS011;67284;44.782;10.282;2023-02-22T08:59:19;128.10;;;71.88;;
26157;SDS011;67284;44.782;10.282;2023-02-22T09:04:11;146.55;;;75.82;;
26157;SDS011;67284;44.782;10.282;2023-02-22T09:09:03;146.00;;;75.28;;
26157;SDS011;67284;44.782;10.282;2023-02-22T09:13:55;154.85;;;77.75;;
26157;SDS011;67284;44.782;10.282;2023-02-22T09:18:47;153.18;;;80.35;;
26157;SDS011;67284;44.782;10.282;2023-02-22T09:23:38;161.85;;;84.63;;
26157;SDS011;67284;44.782;10.282;2023-02-22T09:28:31;144.00;;;77.07;;
26157;SDS011;67284;44.782;10.282;2023-02-22T09:33:23;132.55;;;72.18;;
26157;SDS011;67284;44.782;10.282;2023-02-22T09:38:17;133.98;;;73.18;;
26157;SDS011;67284;44.782;10.282;2023-02-22T09:48:23;144.65;;;79.90;;
26157;SDS011;67284;44.782;10.282;2023-02-22T10:03:28;137.40;;;72.90;;
26157;SDS011;67284;44.782;10.282;2023-02-22T10:08:28;144.73;;;79.35;;
26157;SDS011;67284;44.782;10.282;2023-02-22T10:33:45;142.23;;;74.03;;
26157;SDS011;67284;44.782;10.282;2023-02-22T10:38:38;129.02;;;71.63;;
26157;SDS011;67284;44.782;10.282;2023-02-22T10:43:37;141.45;;;71.63;;
26157;SDS011;67284;44.782;10.282;2023-02-22T10:48:32;133.93;;;73.97;;
26157;SDS011;67284;44.782;10.282;2023-02-22T10:53:28;144.80;;;76.88;;
26157;SDS011;67284;44.782;10.282;2023-02-22T10:58:21;128.27;;;71.68;;
26157;SDS011;67284;44.782;10.282;2023-02-22T11:13:29;161.60;;;85.32;;
26157;SDS011;67284;44.782;10.282;2023-02-22T11:18:26;158.57;;;80.78;;
26157;SDS011;67284;44.782;10.282;2023-02-22T11:23:21;155.82;;;83.10;;
26157;SDS011;67284;44.782;10.282;2023-02-22T11:33:22;147.73;;;82.63;;
26157;SDS011;67284;44.782;10.282;2023-02-22T11:38:18;137.27;;;76.38;;
26157;SDS011;67284;44.782;10.282;2023-02-22T11:43:16;150.68;;;82.35;;
26157;SDS011;67284;44.782;10.282;2023-02-22T11:48:17;150.50;;;81.50;;
26157;SDS011;67284;44.782;10.282;2023-02-22T12:14:16;174.60;;;90.07;;
26157;SDS011;67284;44.782;10.282;2023-02-22T12:19:32;163.63;;;86.93;;
26157;SDS011;67284;44.782;10.282;2023-02-22T12:24:33;154.02;;;83.45;;
26157;SDS011;67284;44.782;10.282;2023-02-22T12:29:36;170.07;;;89.57;;
26157;SDS011;67284;44.782;10.282;2023-02-22T12:45:07;176.07;;;91.20;;
26157;SDS011;67284;44.782;10.282;2023-02-22T12:50:23;166.73;;;84.13;;
26157;SDS011;67284;44.782;10.282;2023-02-22T12:55:22;161.52;;;86.32;;
26157;SDS011;67284;44.782;10.282;2023-02-22T13:00:27;178.93;;;90.90;;
26157;SDS011;67284;44.782;10.282;2023-02-22T13:05:27;177.88;;;89.45;;
26157;SDS011;67284;44.782;10.282;2023-02-22T13:15:31;178.63;;;90.85;;
26157;SDS011;67284;44.782;10.282;2023-02-22T13:20:44;167.20;;;90.88;;
26157;SDS011;67284;44.782;10.282;2023-02-22T13:25:41;171.90;;;90.55;;
26157;SDS011;67284;44.782;10.282;2023-02-22T13:30:40;153.43;;;84.05;;
26157;SDS011;67284;44.782;10.282;2023-02-22T13:35:48;155.95;;;83.65;;
26157;SDS011;67284;44.782;10.282;2023-02-22T13:56:27;152.90;;;83.90;;
26157;SDS011;67284;44.782;10.282;2023-02-22T14:06:35;151.30;;;81.75;;
26157;SDS011;67284;44.782;10.282;2023-02-22T14:16:25;180.55;;;91.35;;
26157;SDS011;67284;44.782;10.282;2023-02-22T14:21:21;157.38;;;83.95;;
26157;SDS011;67284;44.782;10.282;2023-02-22T14:31:09;154.45;;;84.63;;
26157;SDS011;67284;44.782;10.282;2023-02-22T14:36:12;183.07;;;89.63;;
26157;SDS011;67284;44.782;10.282;2023-02-22T14:41:04;177.43;;;90.90;;
26157;SDS011;67284;44.782;10.282;2023-02-22T14:45:59;184.23;;;87.55;;
26157;SDS011;67284;44.782;10.282;2023-02-22T14:50:56;183.82;;;91.85;;
26157;SDS011;67284;44.782;10.282;2023-02-22T14:56:16;183.60;;;90.50;;
26157;SDS011;67284;44.782;10.282;2023-02-22T15:06:45;175.73;;;89.22;;
26157;SDS011;67284;44.782;10.282;2023-02-22T15:11:38;175.52;;;91.30;;
26157;SDS011;67284;44.782;10.282;2023-02-22T15:16:32;193.80;;;94.45;;
26157;SDS011;67284;44.782;10.282;2023-02-22T15:21:25;180.25;;;89.25;;
26157;SDS011;67284;44.782;10.282;2023-02-22T15:26:20;161.98;;;84.38;;
26157;SDS011;67284;44.782;10.282;2023-02-22T15:31:14;179.57;;;89.40;;
26157;SDS011;67284;44.782;10.282;2023-02-22T15:36:11;166.45;;;83.57;;
26157;SDS011;67284;44.782;10.282;2023-02-22T15:41:06;177.27;;;85.68;;
26157;SDS011;67284;44.782;10.282;2023-02-22T15:46:03;170.30;;;84.30;;
26157;SDS011;67284;44.782;10.282;2023-02-22T15:56:00;173.00;;;85.80;;
26157;SDS011;67284;44.782;10.282;2023-02-22T16:01:06;178.23;;;86.30;;
26157;SDS011;67284;44.782;10.282;2023-02-22T16:06:07;162.43;;;81.88;;
26157;SDS011;67284;44.782;10.282;2023-02-22T16:11:03;170.50;;;86.82;;
26157;SDS011;67284;44.782;10.282;2023-02-22T16:16:19;165.60;;;85.35;;
26157;SDS011;67284;44.782;10.282;2023-02-22T16:21:14;177.65;;;89.82;;
26157;SDS011;67284;44.782;10.282;2023-02-22T16:26:18;179.52;;;86.95;;
26157;SDS011;67284;44.782;10.282;2023-02-22T16:31:16;162.77;;;82.13;;
26157;SDS011;67284;44.782;10.282;2023-02-22T16:36:12;181.77;;;90.93;;
26157;SDS011;67284;44.782;10.282;2023-02-22T16:41:05;175.40;;;90.05;;
26157;SDS011;67284;44.782;10.282;2023-02-22T16:45:58;181.27;;;87.32;;
26157;SDS011;67284;44.782;10.282;2023-02-22T16:50:54;189.25;;;94.93;;
26157;SDS011;67284;44.782;10.282;2023-02-22T16:55:50;174.57;;;89.32;;
26157;SDS011;67284;44.782;10.282;2023-02-22T17:00:48;170.00;;;88.32;;
26157;SDS011;67284;44.782;10.282;2023-02-22T17:05:40;183.90;;;91.95;;
26157;SDS011;67284;44.782;10.282;2023-02-22T17:10:33;172.88;;;87.00;;
26157;SDS011;67284;44.782;10.282;2023-02-22T17:15:25;170.45;;;86.97;;
26157;SDS011;67284;44.782;10.282;2023-02-22T17:20:19;177.27;;;86.10;;
26157;SDS011;67284;44.782;10.282;2023-02-22T17:25:21;169.38;;;85.20;;
26157;SDS011;67284;44.782;10.282;2023-02-22T17:30:16;189.57;;;93.82;;
26157;SDS011;67284;44.782;10.282;2023-02-22T17:35:15;168.57;;;84.78;;
26157;SDS011;67284;44.782;10.282;2023-02-22T17:40:08;177.13;;;91.85;;
26157;SDS011;67284;44.782;10.282;2023-02-22T17:45:00;184.77;;;86.80;;
26157;SDS011;67284;44.782;10.282;2023-02-22T17:49:52;181.07;;;87.25;;
26157;SDS011;67284;44.782;10.282;2023-02-22T17:54:43;178.32;;;87.15;;
26157;SDS011;67284;44.782;10.282;2023-02-22T17:59:35;186.52;;;87.22;;
26157;SDS011;67284;44.782;10.282;2023-02-22T18:04:31;185.20;;;89.70;;
26157;SDS011;67284;44.782;10.282;2023-02-22T18:09:25;169.75;;;82.18;;
26157;SDS011;67284;44.782;10.282;2023-02-22T18:14:17;183.98;;;91.90;;
26157;SDS011;67284;44.782;10.282;2023-02-22T18:19:09;181.70;;;94.22;;
26157;SDS011;67284;44.782;10.282;2023-02-22T18:24:00;178.98;;;87.88;;
26157;SDS011;67284;44.782;10.282;2023-02-22T18:28:52;159.57;;;77.60;;
26157;SDS011;67284;44.782;10.282;2023-02-22T18:33:46;177.18;;;87.75;;
26157;SDS011;67284;44.782;10.282;2023-02-22T18:38:40;194.32;;;92.65;;
26157;SDS011;67284;44.782;10.282;2023-02-22T18:43:33;147.57;;;76.45;;
26157;SDS011;67284;44.782;10.282;2023-02-22T18:48:26;188.43;;;84.35;;
26157;SDS011;67284;44.782;10.282;2023-02-22T18:53:17;192.05;;;92.75;;
26157;SDS011;67284;44.782;10.282;2023-02-22T18:58:09;164.25;;;79.32;;
26157;SDS011;67284;44.782;10.282;2023-02-22T19:03:01;178.38;;;87.90;;
26157;SDS011;67284;44.782;10.282;2023-02-22T19:07:53;177.43;;;85.60;;
26157;SDS011;67284;44.782;10.282;2023-02-22T19:12:45;170.43;;;82.65;;
26157;SDS011;67284;44.782;10.282;2023-02-22T19:17:36;172.07;;;88.93;;
26157;SDS011;67284;44.782;10.282;2023-02-22T19:22:32;176.07;;;88.28;;
26157;SDS011;67284;44.782;10.282;2023-02-22T19:27:25;190.27;;;87.38;;
26157;SDS011;67284;44.782;10.282;2023-02-22T19:32:20;172.10;;;82.70;;
26157;SDS011;67284;44.782;10.282;2023-02-22T19:37:13;182.45;;;89.57;;
26157;SDS011;67284;44.782;10.282;2023-02-22T19:42:05;182.18;;;87.53;;
26157;SDS011;67284;44.782;10.282;2023-02-22T19:46:59;185.65;;;87.70;;
26157;SDS011;67284;44.782;10.282;2023-02-22T19:51:51;191.27;;;90.40;;
26157;SDS011;67284;44.782;10.282;2023-02-22T19:56:43;174.93;;;86.45;;
26157;SDS011;67284;44.782;10.282;2023-02-22T20:01:35;204.32;;;95.63;;
26157;SDS011;67284;44.782;10.282;2023-02-22T20:06:28;192.73;;;91.78;;
26157;SDS011;67284;44.782;10.282;2023-02-22T20:11:25;205.45;;;98.18;;
26157;SDS011;67284;44.782;10.282;2023-02-22T20:16:18;179.13;;;87.20;;
26157;SDS011;67284;44.782;10.282;2023-02-22T20:21:10;186.75;;;88.50;;
26157;SDS011;67284;44.782;10.282;2023-02-22T20:26:15;203.43;;;95.45;;
26157;SDS011;67284;44.782;10.282;2023-02-22T20:31:09;186.87;;;91.80;;
26157;SDS011;67284;44.782;10.282;2023-02-22T20:36:04;177.45;;;89.53;;
26157;SDS011;67284;44.782;10.282;2023-02-22T20:40:56;178.52;;;86.63;;
26157;SDS011;67284;44.782;10.282;2023-02-22T20:45:47;182.07;;;87.03;;
26157;SDS011;67284;44.782;10.282;2023-02-22T20:50:39;210.38;;;94.68;;
26157;SDS011;67284;44.782;10.282;2023-02-22T20:55:31;184.00;;;86.15;;
26157;SDS011;67284;44.782;10.282;2023-02-22T21:00:23;171.18;;;82.07;;
26157;SDS011;67284;44.782;10.282;2023-02-22T21:05:15;185.48;;;88.63;;
26157;SDS011;67284;44.782;10.282;2023-02-22T21:10:07;180.35;;;85.32;;
26157;SDS011;67284;44.782;10.282;2023-02-22T21:14:59;194.00;;;91.32;;
26157;SDS011;67284;44.782;10.282;2023-02-22T21:19:51;193.18;;;95.15;;
26157;SDS011;67284;44.782;10.282;2023-02-22T21:24:42;181.68;;;87.57;;
26157;SDS011;67284;44.782;10.282;2023-02-22T21:29:34;183.23;;;87.68;;
26157;SDS011;67284;44.782;10.282;2023-02-22T21:34:26;189.10;;;93.68;;
26157;SDS011;67284;44.782;10.282;2023-02-22T21:39:18;205.88;;;95.60;;
26157;SDS011;67284;44.782;10.282;2023-02-22T21:44:10;194.48;;;95.00;;
26157;SDS011;67284;44.782;10.282;2023-02-22T21:49:03;180.68;;;89.18;;
26157;SDS011;67284;44.782;10.282;2023-02-22T21:53:56;171.30;;;85.15;;
26157;SDS011;67284;44.782;10.282;2023-02-22T21:58:55;189.52;;;92.78;;
26157;SDS011;67284;44.782;10.282;2023-02-22T22:03:54;187.70;;;90.30;;
26157;SDS011;67284;44.782;10.282;2023-02-22T22:08:47;187.18;;;91.55;;
26157;SDS011;67284;44.782;10.282;2023-02-22T22:13:39;182.50;;;91.57;;
26157;SDS011;67284;44.782;10.282;2023-02-22T22:18:33;175.60;;;86.35;;
26157;SDS011;67284;44.782;10.282;2023-02-22T22:23:26;198.32;;;93.88;;
26157;SDS011;67284;44.782;10.282;2023-02-22T22:28:18;172.45;;;84.82;;
26157;SDS011;67284;44.782;10.282;2023-02-22T22:33:10;178.63;;;86.10;;
26157;SDS011;67284;44.782;10.282;2023-02-22T22:38:01;186.00;;;92.10;;
26157;SDS011;67284;44.782;10.282;2023-02-22T22:42:53;178.10;;;90.53;;
26157;SDS011;67284;44.782;10.282;2023-02-22T22:47:45;177.63;;;89.82;;
26157;SDS011;67284;44.782;10.282;2023-02-22T22:52:37;177.60;;;87.25;;
26157;SDS011;67284;44.782;10.282;2023-02-22T22:57:29;176.50;;;88.72;;
26157;SDS011;67284;44.782;10.282;2023-02-22T23:02:21;173.68;;;86.20;;
26157;SDS011;67284;44.782;10.282;2023-02-22T23:07:13;175.10;;;89.10;;
26157;SDS011;67284;44.782;10.282;2023-02-22T23:12:05;170.85;;;87.18;;
26157;SDS011;67284;44.782;10.282;2023-02-22T23:17:06;164.52;;;85.72;;
26157;SDS011;67284;44.782;10.282;2023-02-22T23:22:05;163.25;;;84.05;;
26157;SDS011;67284;44.782;10.282;2023-02-22T23:26:57;180.65;;;91.05;;
26157;SDS011;67284;44.782;10.282;2023-02-22T23:31:52;174.50;;;88.65;;
26157;SDS011;67284;44.782;10.282;2023-02-22T23:36:45;192.50;;;91.00;;
26157;SDS011;67284;44.782;10.282;2023-02-22T23:41:37;180.43;;;92.72;;
26157;SDS011;67284;44.782;10.282;2023-02-22T23:46:29;170.95;;;86.20;;
26157;SDS011;67284;44.782;10.282;2023-02-22T23:51:23;182.50;;;90.15;;
26157;SDS011;67284;44.782;10.282;2023-02-22T23:56:16;194.88;;;94.65;;
